createdAt,value
2023-01-29T00:01:56.973Z,24.03
2023-01-29T00:04:24.433Z,25.30
2023-01-29T00:06:51.502Z,25.17
2023-01-29T00:09:19.059Z,22.50
2023-01-29T00:11:46.040Z,21.30
2023-01-29T00:14:13.643Z,20.05
2023-01-29T00:16:40.683Z,17.83
2023-01-29T00:19:07.956Z,19.00
2023-01-29T00:21:35.299Z,16.23
2023-01-29T00:24:02.406Z,14.43
2023-01-29T00:26:29.447Z,14.43
2023-01-29T00:29:03.191Z,13.93
2023-01-29T00:31:30.803Z,11.52
2023-01-29T00:33:58.449Z,11.95
2023-01-29T00:36:26.677Z,17.05
2023-01-29T00:39:02.931Z,14.55
2023-01-29T00:41:51.063Z,13.98
2023-01-29T00:44:37.209Z,11.97
2023-01-29T00:47:05.251Z,11.43
2023-01-29T00:49:32.340Z,12.40
2023-01-29T00:52:17.776Z,12.07
2023-01-29T00:54:44.746Z,13.13
2023-01-29T00:57:11.769Z,12.27
2023-01-29T00:59:38.779Z,14.02
2023-01-29T01:02:24.210Z,12.60
2023-01-29T01:04:51.249Z,11.93
2023-01-29T01:07:18.214Z,13.07
2023-01-29T01:10:03.527Z,15.32
2023-01-29T01:12:31.214Z,12.65
2023-01-29T01:14:58.212Z,12.80
2023-01-29T01:17:25.273Z,15.20
2023-01-29T01:19:52.223Z,14.80
2023-01-29T01:22:19.431Z,11.23
2023-01-29T01:24:46.918Z,10.53
2023-01-29T01:27:14.142Z,11.13
2023-01-29T01:29:41.180Z,10.67
2023-01-29T01:32:08.523Z,9.30
2023-01-29T01:34:35.912Z,9.60
2023-01-29T01:37:02.942Z,8.30
2023-01-29T01:39:30.140Z,9.17
2023-01-29T01:41:57.464Z,8.93
2023-01-29T01:44:55.336Z,7.87
2023-01-29T01:48:06.379Z,8.00
2023-01-29T01:50:36.128Z,8.00
2023-01-29T01:53:12.861Z,7.40
2023-01-29T01:55:45.906Z,7.88
2023-01-29T01:58:19.822Z,6.83
2023-01-29T02:00:46.915Z,7.10
2023-01-29T02:03:32.642Z,8.57
2023-01-29T02:06:19.067Z,7.87
2023-01-29T02:09:27.366Z,8.90
2023-01-29T02:11:54.350Z,6.82
2023-01-29T02:14:22.314Z,7.30
2023-01-29T02:16:49.531Z,6.33
2023-01-29T02:19:48.136Z,6.87
2023-01-29T02:22:56.319Z,5.90
2023-01-29T02:25:50.556Z,5.40
2023-01-29T02:28:32.727Z,5.40
2023-01-29T02:31:03.061Z,5.53
2023-01-29T02:33:48.364Z,6.03
2023-01-29T02:36:23.157Z,6.23
2023-01-29T02:39:28.514Z,5.63
2023-01-29T02:42:04.342Z,7.00
2023-01-29T02:44:38.900Z,5.47
2023-01-29T02:47:14.185Z,5.47
2023-01-29T02:49:53.082Z,6.37
2023-01-29T02:52:23.406Z,5.53
2023-01-29T02:55:04.960Z,6.03
2023-01-29T02:57:37.082Z,10.43
2023-01-29T03:00:18.845Z,6.50
2023-01-29T03:03:22.356Z,7.00
2023-01-29T03:05:55.096Z,5.87
2023-01-29T03:08:37.246Z,5.93
2023-01-29T03:11:07.147Z,5.53
2023-01-29T03:13:53.752Z,5.57
2023-01-29T03:16:29.811Z,4.67
2023-01-29T03:19:04.911Z,4.68
2023-01-29T03:21:55.270Z,4.13
2023-01-29T03:24:51.117Z,5.28
2023-01-29T03:27:41.805Z,5.60
2023-01-29T03:30:31.353Z,4.73
2023-01-29T03:33:11.427Z,5.43
2023-01-29T03:35:44.801Z,4.37
2023-01-29T03:38:12.285Z,5.90
2023-01-29T03:40:58.302Z,4.68
2023-01-29T03:43:49.524Z,4.90
2023-01-29T03:46:41.159Z,4.47
2023-01-29T03:49:19.042Z,3.87
2023-01-29T03:52:09.045Z,4.23
2023-01-29T03:54:57.902Z,4.30
2023-01-29T03:57:37.994Z,5.75
2023-01-29T04:00:07.946Z,2.97
2023-01-29T04:03:23.481Z,4.03
2023-01-29T04:06:10.051Z,4.37
2023-01-29T04:09:03.142Z,3.80
2023-01-29T04:11:33.713Z,4.53
2023-01-29T04:14:01.439Z,4.13
2023-01-29T04:16:35.065Z,3.90
2023-01-29T04:19:25.344Z,3.93
2023-01-29T04:22:04.117Z,4.20
2023-01-29T04:24:32.385Z,4.67
2023-01-29T04:27:17.894Z,4.60
2023-01-29T04:30:10.827Z,4.30
2023-01-29T04:33:00.145Z,3.47
2023-01-29T04:35:31.983Z,4.18
2023-01-29T04:38:28.148Z,4.10
2023-01-29T04:41:24.452Z,3.73
2023-01-29T04:44:08.541Z,4.13
2023-01-29T04:46:38.377Z,4.63
2023-01-29T04:49:14.445Z,4.10
2023-01-29T04:51:56.806Z,4.15
2023-01-29T04:54:31.370Z,3.50
2023-01-29T04:57:14.896Z,3.60
2023-01-29T05:00:12.159Z,4.00
2023-01-29T05:02:41.825Z,4.72
2023-01-29T05:05:10.984Z,4.37
2023-01-29T05:07:39.507Z,4.80
2023-01-29T05:10:10.458Z,4.28
2023-01-29T05:12:38.713Z,4.30
2023-01-29T05:15:12.425Z,4.80
2023-01-29T05:17:39.539Z,4.43
2023-01-29T05:20:07.298Z,4.43
2023-01-29T05:22:39.193Z,5.37
2023-01-29T05:25:21.631Z,5.63
2023-01-29T05:28:16.474Z,4.70
2023-01-29T05:30:48.781Z,4.83
2023-01-29T05:33:19.684Z,5.03
2023-01-29T05:35:47.305Z,5.77
2023-01-29T05:38:15.398Z,5.47
2023-01-29T05:40:42.746Z,5.80
2023-01-29T05:43:18.690Z,5.30
2023-01-29T05:45:57.302Z,5.73
2023-01-29T05:48:25.146Z,6.57
2023-01-29T05:50:52.338Z,8.13
2023-01-29T05:53:19.667Z,7.43
2023-01-29T05:55:49.346Z,6.33
2023-01-29T05:58:16.342Z,7.37
2023-01-29T06:00:43.311Z,8.03
2023-01-29T06:03:10.294Z,6.37
2023-01-29T06:05:40.851Z,6.13
2023-01-29T06:08:08.779Z,5.80
2023-01-29T06:10:36.181Z,8.43
2023-01-29T06:13:03.465Z,7.37
2023-01-29T06:15:30.479Z,7.23
2023-01-29T06:17:57.938Z,5.97
2023-01-29T06:20:25.277Z,6.63
2023-01-29T06:22:52.261Z,5.50
2023-01-29T06:25:19.300Z,6.70
2023-01-29T06:27:46.339Z,5.83
2023-01-29T06:30:14.066Z,5.80
2023-01-29T06:32:41.238Z,5.23
2023-01-29T06:35:09.996Z,6.38
2023-01-29T06:37:37.195Z,5.20
2023-01-29T06:40:04.842Z,5.67
2023-01-29T06:42:31.914Z,7.63
2023-01-29T06:44:58.876Z,6.17
2023-01-29T06:47:27.925Z,5.57
2023-01-29T06:49:55.161Z,7.13
2023-01-29T06:52:22.187Z,7.27
2023-01-29T06:54:49.277Z,6.20
2023-01-29T06:57:16.312Z,5.83
2023-01-29T06:59:43.511Z,6.23
2023-01-29T07:02:11.265Z,5.40
2023-01-29T07:04:39.298Z,6.63
2023-01-29T07:07:12.863Z,6.93
2023-01-29T07:09:43.596Z,6.90
2023-01-29T07:12:11.476Z,6.70
2023-01-29T07:14:38.440Z,6.87
2023-01-29T07:17:05.482Z,5.60
2023-01-29T07:19:32.448Z,6.87
2023-01-29T07:22:02.615Z,5.50
2023-01-29T07:24:29.821Z,6.43
2023-01-29T07:26:57.005Z,5.57
2023-01-29T07:29:24.033Z,6.30
2023-01-29T07:31:51.184Z,6.70
2023-01-29T07:34:18.322Z,6.47
2023-01-29T07:36:45.414Z,4.73
2023-01-29T07:39:12.546Z,3.97
2023-01-29T07:41:39.535Z,3.93
2023-01-29T07:44:15.786Z,3.83
2023-01-29T07:46:42.791Z,4.80
2023-01-29T07:49:09.747Z,4.07
2023-01-29T07:51:36.738Z,4.47
2023-01-29T07:54:03.796Z,4.63
2023-01-29T07:56:30.764Z,4.32
2023-01-29T07:58:57.726Z,4.10
2023-01-29T08:01:24.741Z,5.22
2023-01-29T08:03:53.167Z,3.67
2023-01-29T08:06:20.125Z,4.05
2023-01-29T08:08:47.084Z,4.00
2023-01-29T08:11:15.361Z,3.03
2023-01-29T08:13:42.422Z,5.65
2023-01-29T08:16:09.595Z,3.17
2023-01-29T08:18:37.912Z,4.05
2023-01-29T08:21:05.101Z,4.10
2023-01-29T08:23:32.358Z,3.33
2023-01-29T08:25:59.507Z,3.45
2023-01-29T08:28:26.569Z,5.03
2023-01-29T08:30:53.647Z,3.45
2023-01-29T08:33:29.603Z,4.25
2023-01-29T08:36:04.272Z,4.40
2023-01-29T08:38:31.329Z,3.65
2023-01-29T08:40:58.325Z,3.42
2023-01-29T08:43:25.387Z,3.55
2023-01-29T08:45:52.481Z,4.30
2023-01-29T08:48:19.448Z,4.75
2023-01-29T08:50:46.507Z,4.18
2023-01-29T08:53:13.511Z,6.15
2023-01-29T08:55:41.494Z,4.53
2023-01-29T08:58:11.541Z,4.35
2023-01-29T09:00:38.979Z,5.28
2023-01-29T09:03:08.085Z,5.85
2023-01-29T09:05:39.126Z,4.55
2023-01-29T09:08:07.856Z,4.07
2023-01-29T09:10:35.479Z,3.75
2023-01-29T09:13:02.445Z,6.00
2023-01-29T09:15:29.560Z,4.03
2023-01-29T09:17:56.605Z,4.35
2023-01-29T09:20:24.570Z,3.60
2023-01-29T09:22:53.887Z,4.45
2023-01-29T09:25:22.420Z,5.35
2023-01-29T09:27:49.430Z,5.00
2023-01-29T09:30:17.184Z,4.43
2023-01-29T09:32:53.263Z,3.58
2023-01-29T09:35:24.378Z,4.93
2023-01-29T09:37:52.289Z,5.28
2023-01-29T09:40:43.742Z,4.85
2023-01-29T09:43:21.470Z,6.63
2023-01-29T09:46:04.725Z,4.57
2023-01-29T09:48:35.572Z,4.50
2023-01-29T09:51:13.016Z,5.10
2023-01-29T09:53:47.704Z,5.40
2023-01-29T09:56:20.103Z,6.28
2023-01-29T09:58:47.638Z,4.80
2023-01-29T10:01:33.437Z,5.60
2023-01-29T10:04:20.135Z,4.50
2023-01-29T10:07:05.103Z,4.73
2023-01-29T10:09:40.766Z,5.47
2023-01-29T10:12:16.807Z,4.22
2023-01-29T10:14:57.072Z,4.38
2023-01-29T10:17:29.760Z,4.38
2023-01-29T10:20:18.429Z,4.80
2023-01-29T10:22:54.473Z,4.55
2023-01-29T10:25:23.392Z,5.15
2023-01-29T10:27:54.053Z,5.28
2023-01-29T10:30:44.371Z,4.45
2023-01-29T10:33:19.475Z,6.07
2023-01-29T10:35:58.414Z,4.45
2023-01-29T10:38:49.365Z,4.97
2023-01-29T10:41:43.587Z,4.85
2023-01-29T10:44:22.721Z,6.18
2023-01-29T10:47:18.147Z,4.97
2023-01-29T10:50:09.457Z,4.65
2023-01-29T10:52:57.178Z,4.85
2023-01-29T10:55:54.931Z,4.82
2023-01-29T10:58:48.010Z,5.93
2023-01-29T11:01:15.349Z,5.50
2023-01-29T11:03:42.601Z,5.43
2023-01-29T11:06:25.471Z,5.20
2023-01-29T11:09:09.888Z,5.03
2023-01-29T11:11:50.531Z,4.93
2023-01-29T11:14:24.595Z,5.80
2023-01-29T11:16:51.971Z,4.78
2023-01-29T11:19:35.867Z,5.75
2023-01-29T11:22:04.461Z,5.03
2023-01-29T11:24:31.472Z,4.97
2023-01-29T11:27:00.153Z,5.72
2023-01-29T11:29:27.591Z,6.22
2023-01-29T11:31:55.082Z,5.75
2023-01-29T11:34:25.313Z,6.00
2023-01-29T11:37:04.657Z,5.93
2023-01-29T11:39:32.813Z,6.03
2023-01-29T11:42:02.878Z,4.95
2023-01-29T11:44:37.070Z,5.93
2023-01-29T11:47:22.335Z,5.93
2023-01-29T11:49:52.708Z,5.85
2023-01-29T11:52:23.321Z,5.22
2023-01-29T11:54:54.685Z,6.63
2023-01-29T11:57:27.944Z,5.63
2023-01-29T11:59:59.405Z,5.20
2023-01-29T12:02:30.934Z,5.88
2023-01-29T12:05:16.020Z,5.53
2023-01-29T12:07:45.550Z,7.18
2023-01-29T12:10:33.305Z,4.70
2023-01-29T12:15:38.024Z,5.40
2023-01-29T12:18:11.815Z,6.75
2023-01-29T12:20:55.285Z,6.13
2023-01-29T12:23:26.284Z,6.68
2023-01-29T12:26:02.959Z,5.93
2023-01-29T12:28:49.548Z,6.70
2023-01-29T12:31:29.361Z,5.75
2023-01-29T12:34:01.905Z,6.88
2023-01-29T12:36:34.789Z,6.90
2023-01-29T12:39:01.998Z,6.38
2023-01-29T12:41:57.509Z,6.15
2023-01-29T12:44:45.871Z,8.13
2023-01-29T12:47:33.682Z,8.77
2023-01-29T12:50:06.729Z,7.05
2023-01-29T12:52:44.298Z,6.90
2023-01-29T12:55:19.795Z,5.38
2023-01-29T12:58:00.564Z,6.82
2023-01-29T13:00:34.098Z,6.20
2023-01-29T13:03:13.883Z,5.80
2023-01-29T13:06:06.213Z,5.93
2023-01-29T13:08:43.827Z,5.15
2023-01-29T13:11:22.400Z,6.03
2023-01-29T13:14:08.955Z,6.43
2023-01-29T13:16:43.922Z,5.90
2023-01-29T13:19:29.590Z,5.63
2023-01-29T13:22:00.455Z,6.57
2023-01-29T13:24:35.916Z,6.45
2023-01-29T13:27:04.189Z,7.55
2023-01-29T13:29:32.437Z,6.63
2023-01-29T13:32:04.537Z,6.65
2023-01-29T13:34:45.341Z,6.60
2023-01-29T13:37:41.768Z,6.28
2023-01-29T13:40:24.992Z,6.07
2023-01-29T13:42:54.380Z,6.32
2023-01-29T13:45:36.553Z,6.43
2023-01-29T13:48:37.005Z,6.77
2023-01-29T13:51:15.748Z,8.05
2023-01-29T13:53:44.353Z,5.90
2023-01-29T13:56:33.230Z,7.18
2023-01-29T13:59:05.706Z,5.93
2023-01-29T14:01:48.050Z,7.03
2023-01-29T14:04:32.552Z,7.03
2023-01-29T14:07:03.151Z,7.22
2023-01-29T14:09:34.007Z,7.00
2023-01-29T14:12:01.380Z,7.35
2023-01-29T14:14:48.704Z,6.30
2023-01-29T14:17:17.467Z,6.47
2023-01-29T14:19:52.092Z,6.70
2023-01-29T14:22:24.887Z,6.90
2023-01-29T14:24:57.291Z,7.97
2023-01-29T14:27:28.378Z,6.73
2023-01-29T14:30:06.118Z,7.60
2023-01-29T14:32:33.923Z,6.82
2023-01-29T14:35:22.641Z,7.23
2023-01-29T14:38:02.860Z,7.20
2023-01-29T14:40:31.067Z,8.25
2023-01-29T14:43:21.912Z,9.50
2023-01-29T14:45:49.635Z,8.30
2023-01-29T14:48:52.060Z,7.13
2023-01-29T14:51:20.655Z,8.18
2023-01-29T14:53:58.808Z,8.57
2023-01-29T14:56:33.459Z,8.37
2023-01-29T14:59:31.749Z,7.88
2023-01-29T15:02:04.471Z,8.35
2023-01-29T15:04:47.157Z,7.10
2023-01-29T15:07:55.289Z,7.20
2023-01-29T15:10:32.562Z,10.32
2023-01-29T15:13:12.890Z,7.13
2023-01-29T15:16:16.145Z,7.07
2023-01-29T15:18:43.940Z,7.78
2023-01-29T15:21:17.035Z,8.02
2023-01-29T15:23:45.412Z,7.43
2023-01-29T15:26:18.741Z,7.20
2023-01-29T15:29:02.182Z,8.43
2023-01-29T15:31:31.392Z,8.50
2023-01-29T15:34:05.531Z,6.95
2023-01-29T15:36:33.084Z,7.85
2023-01-29T15:39:12.078Z,9.25
2023-01-29T15:41:39.279Z,8.30
2023-01-29T15:44:24.183Z,7.73
2023-01-29T15:46:57.836Z,8.18
2023-01-29T15:49:35.109Z,7.17
2023-01-29T15:52:16.888Z,7.45
2023-01-29T15:54:44.457Z,7.25
2023-01-29T15:57:22.635Z,8.30
2023-01-29T15:59:52.161Z,6.53
2023-01-29T16:02:41.477Z,7.65
2023-01-29T16:05:17.814Z,9.35
2023-01-29T16:07:46.665Z,8.80
2023-01-29T16:10:30.630Z,7.25
2023-01-29T16:12:58.639Z,8.88
2023-01-29T16:15:32.883Z,9.48
2023-01-29T16:18:01.629Z,8.23
2023-01-29T16:20:45.952Z,8.30
2023-01-29T16:23:19.433Z,8.70
2023-01-29T16:25:48.854Z,8.40
2023-01-29T16:28:17.074Z,8.80
2023-01-29T16:30:44.855Z,10.00
2023-01-29T16:33:17.184Z,10.85
2023-01-29T16:35:51.765Z,8.88
2023-01-29T16:38:32.034Z,10.07
2023-01-29T16:41:26.316Z,9.90
2023-01-29T16:44:03.944Z,11.35
2023-01-29T16:46:46.856Z,10.35
2023-01-29T16:49:25.933Z,13.68
2023-01-29T16:51:54.396Z,10.68
2023-01-29T16:54:25.894Z,11.63
2023-01-29T16:56:58.482Z,10.75
2023-01-29T16:59:38.101Z,9.68
2023-01-29T17:02:27.951Z,8.63
2023-01-29T17:05:01.687Z,10.27
2023-01-29T17:07:33.050Z,9.15
2023-01-29T17:10:03.105Z,11.35
2023-01-29T17:12:31.942Z,9.83
2023-01-29T17:14:58.985Z,8.80
2023-01-29T17:17:38.779Z,8.43
2023-01-29T17:20:15.689Z,9.53
2023-01-29T17:22:43.110Z,8.52
2023-01-29T17:25:13.688Z,8.57
2023-01-29T17:27:51.550Z,8.53
2023-01-29T17:30:22.336Z,8.27
2023-01-29T17:32:49.866Z,10.90
2023-01-29T17:35:17.878Z,8.50
2023-01-29T17:37:45.155Z,9.53
2023-01-29T17:40:34.573Z,13.68
2023-01-29T17:43:01.690Z,10.33
2023-01-29T17:45:29.075Z,8.20
2023-01-29T17:47:56.036Z,9.82
2023-01-29T17:50:27.987Z,10.67
2023-01-29T17:52:55.794Z,9.93
2023-01-29T17:55:22.769Z,10.73
2023-01-29T17:57:49.858Z,8.57
2023-01-29T18:00:19.936Z,8.27
2023-01-29T18:02:48.677Z,9.23
2023-01-29T18:05:17.622Z,9.25
2023-01-29T18:07:47.043Z,8.27
2023-01-29T18:10:17.860Z,9.07
2023-01-29T18:12:45.491Z,8.73
2023-01-29T18:15:13.510Z,7.93
2023-01-29T18:17:40.932Z,9.17
2023-01-29T18:20:21.090Z,7.83
2023-01-29T18:22:48.614Z,7.73
2023-01-29T18:25:16.360Z,7.65
2023-01-29T18:27:44.003Z,9.23
2023-01-29T18:30:11.938Z,10.17
2023-01-29T18:32:39.219Z,7.87
2023-01-29T18:35:06.813Z,7.77
2023-01-29T18:37:34.171Z,8.90
2023-01-29T18:40:01.160Z,7.10
2023-01-29T18:42:32.021Z,7.97
2023-01-29T18:44:59.199Z,8.50
2023-01-29T18:47:26.180Z,7.28
2023-01-29T18:49:53.300Z,7.45
2023-01-29T18:52:20.367Z,8.75
2023-01-29T18:54:52.732Z,8.20
2023-01-29T18:58:25.150Z,7.67
2023-01-29T19:00:10.771Z,8.03
2023-01-29T19:02:37.876Z,7.80
2023-01-29T19:05:05.248Z,6.63
2023-01-29T19:07:32.251Z,8.00
2023-01-29T19:10:02.540Z,8.32
2023-01-29T19:12:30.002Z,8.40
2023-01-29T19:14:56.957Z,10.00
2023-01-29T19:17:24.137Z,8.07
2023-01-29T19:19:52.665Z,9.63
2023-01-29T19:22:19.718Z,9.53
2023-01-29T19:24:46.744Z,9.30
2023-01-29T19:27:13.717Z,9.30
2023-01-29T19:29:44.234Z,8.80
2023-01-29T19:32:11.763Z,8.67
2023-01-29T19:34:38.979Z,6.90
2023-01-29T19:37:06.531Z,8.10
2023-01-29T19:39:34.282Z,7.40
2023-01-29T19:42:01.657Z,9.17
2023-01-29T19:44:32.776Z,9.77
2023-01-29T19:47:01.050Z,7.90
2023-01-29T19:49:29.431Z,8.43
2023-01-29T19:51:59.608Z,8.57
2023-01-29T19:54:30.506Z,7.80
2023-01-29T19:56:57.968Z,7.47
2023-01-29T19:59:25.042Z,7.67
2023-01-29T20:01:52.684Z,9.50
2023-01-29T20:04:19.799Z,8.10
2023-01-29T20:06:48.550Z,9.23
2023-01-29T20:09:17.778Z,9.63
2023-01-29T20:11:45.896Z,9.03
2023-01-29T20:14:13.013Z,8.80
2023-01-29T20:16:40.135Z,7.50
2023-01-29T20:19:14.126Z,9.05
2023-01-29T20:21:45.313Z,9.00
2023-01-29T20:24:13.456Z,7.83
2023-01-29T20:26:40.641Z,8.60
2023-01-29T20:29:07.682Z,9.13
2023-01-29T20:31:34.714Z,8.93
2023-01-29T20:34:01.730Z,10.13
2023-01-29T20:36:28.846Z,8.70
2023-01-29T20:38:55.832Z,8.03
2023-01-29T20:41:25.209Z,8.27
2023-01-29T20:43:52.186Z,8.63
2023-01-29T20:46:19.209Z,9.03
2023-01-29T20:48:46.233Z,9.18
2023-01-29T20:51:16.351Z,8.53
2023-01-29T20:53:45.946Z,8.38
2023-01-29T20:56:14.701Z,7.80
2023-01-29T20:58:41.802Z,8.30
2023-01-29T21:01:16.377Z,9.23
2023-01-29T21:03:44.033Z,8.33
2023-01-29T21:06:12.134Z,8.40
2023-01-29T21:08:39.928Z,8.10
2023-01-29T21:11:10.090Z,8.60
2023-01-29T21:13:39.243Z,9.13
2023-01-29T21:16:07.467Z,10.37
2023-01-29T21:18:35.636Z,9.73
2023-01-29T21:21:02.677Z,9.97
2023-01-29T21:23:30.218Z,9.30
2023-01-29T21:26:06.118Z,10.80
2023-01-29T21:28:33.439Z,11.27
2023-01-29T21:31:11.576Z,10.43
2023-01-29T21:33:38.806Z,9.90
2023-01-29T21:36:06.355Z,10.47
2023-01-29T21:38:33.450Z,12.63
2023-01-29T21:41:02.475Z,10.57
2023-01-29T21:43:29.467Z,10.17
2023-01-29T21:45:58.322Z,10.10
2023-01-29T21:48:25.635Z,11.63
2023-01-29T21:50:52.673Z,10.03
2023-01-29T21:53:20.075Z,10.50
2023-01-29T21:55:47.681Z,12.73
2023-01-29T21:58:14.912Z,13.37
2023-01-29T22:00:41.896Z,10.97
2023-01-29T22:03:08.947Z,10.97
2023-01-29T22:05:35.925Z,10.83
2023-01-29T22:08:04.900Z,9.67
2023-01-29T22:10:34.095Z,10.93
2023-01-29T22:13:02.158Z,11.60
2023-01-29T22:15:29.169Z,10.23
2023-01-29T22:17:56.129Z,10.90
2023-01-29T22:20:30.151Z,10.97
2023-01-29T22:22:59.468Z,8.83
2023-01-29T22:25:26.858Z,11.40
2023-01-29T22:27:53.947Z,11.23
2023-01-29T22:30:23.357Z,9.70
2023-01-29T22:32:50.848Z,9.20
2023-01-29T22:35:18.062Z,10.37
2023-01-29T22:37:45.263Z,9.60
2023-01-29T22:40:13.275Z,9.57
2023-01-29T22:42:40.350Z,8.97
2023-01-29T22:45:09.962Z,10.37
2023-01-29T22:47:37.484Z,10.13
2023-01-29T22:50:06.618Z,10.07
2023-01-29T22:52:42.693Z,11.27
2023-01-29T22:55:11.153Z,9.97
2023-01-29T22:57:38.948Z,10.43
2023-01-29T23:00:10.800Z,8.17
2023-01-29T23:02:37.869Z,8.57
2023-01-29T23:05:05.313Z,10.30
2023-01-29T23:07:32.339Z,9.93
2023-01-29T23:09:59.348Z,9.83
2023-01-29T23:12:26.328Z,10.00
2023-01-29T23:14:53.291Z,9.03
2023-01-29T23:17:20.532Z,8.10
2023-01-29T23:19:47.564Z,7.60
2023-01-29T23:22:14.565Z,9.33
2023-01-29T23:24:41.595Z,9.30
2023-01-29T23:27:15.652Z,8.73
2023-01-29T23:29:49.060Z,8.60
2023-01-29T23:32:19.016Z,9.30
2023-01-29T23:34:46.121Z,9.30
2023-01-29T23:37:13.138Z,9.05
2023-01-29T23:39:40.142Z,8.80
2023-01-29T23:42:07.259Z,9.27
2023-01-29T23:44:34.273Z,9.57
2023-01-29T23:47:01.600Z,9.33
2023-01-29T23:49:28.713Z,9.65
2023-01-29T23:51:55.668Z,8.30
2023-01-29T23:54:22.736Z,8.43
2023-01-29T23:56:49.970Z,8.80
2023-01-29T23:59:17.313Z,8.83
